Time;durP1;ratioP1;P1;durP2;ratioP2;P2;SDS_P1;SDS_P2;PMS_P1;PMS_P2;Temp;Humidity;BMP_temperature;BMP_pressure;BME280_temperature;BME280_humidity;BME280_pressure;Samples;Min_cycle;Max_cycle;Signal;HPM_P1;HPM_P2
2023/10/16 00:04:53;;;;;;;;;;;5.60;99.90;;;;;;21171435;27;19966;-76
2023/10/16 00:14:54;;;;;;;;;;;5.50;99.90;;;;;;21175438;27;20275;-77
2023/10/16 00:24:58;;;;;;;;;;;5.30;99.90;;;;;;21174444;27;19916;-77
2023/10/16 00:35:00;;;;;;;;;;;5.40;99.90;;;;;;21172479;27;19969;-77
2023/10/16 00:45:00;;;;;;;;;;;5.50;99.90;;;;;;21176005;27;20329;-77
2023/10/16 00:55:01;;;;;;;;;;;5.50;99.90;;;;;;21170440;27;20015;-77
2023/10/16 01:05:03;;;;;;;;;;;5.40;99.90;;;;;;21171158;27;20302;-77
2023/10/16 01:15:06;;;;;;;;;;;5.40;99.90;;;;;;21174574;27;20469;-77
2023/10/16 01:25:08;;;;;;;;;;;5.40;99.90;;;;;;21184374;27;20010;-76
2023/10/16 01:35:08;;;;;;;;;;;5.40;99.90;;;;;;21172862;27;20161;-78
2023/10/16 01:45:11;;;;;;;;;;;5.40;99.90;;;;;;21182569;28;19917;-78
2023/10/16 01:55:16;;;;;;;;;;;5.20;99.90;;;;;;21174562;27;19971;-76
2023/10/16 02:05:18;;;;;;;;;;;5.00;99.90;;;;;;21182968;27;19911;-77
2023/10/16 02:15:21;;;;;;;;;;;5.00;99.90;;;;;;21181470;27;19970;-78
2023/10/16 02:25:23;;;;;;;;;;;5.00;99.90;;;;;;21182223;27;19915;-74
2023/10/16 02:35:24;;;;;;;;;;;4.90;99.90;;;;;;21185164;27;19915;-77
2023/10/16 02:45:25;;;;;;;;;;;4.80;99.90;;;;;;21202660;27;19911;-78
2023/10/16 02:55:26;;;;;;;;;;;5.10;99.90;;;;;;21200715;27;19922;-78
2023/10/16 03:05:28;;;;;;;;;;;5.00;99.90;;;;;;21195121;27;19911;-77
2023/10/16 03:15:29;;;;;;;;;;;5.00;99.90;;;;;;21190465;27;19923;-78
2023/10/16 03:35:46;;;;;;;;;;;4.90;99.90;;;;;;21194095;27;20048;-78
2023/10/16 03:45:47;;;;;;;;;;;4.90;99.90;;;;;;21193905;27;19958;-77
2023/10/16 03:55:50;;;;;;;;;;;4.80;99.90;;;;;;21204656;27;19916;-79
2023/10/16 04:05:51;;;;;;;;;;;4.80;99.90;;;;;;21207269;27;19923;-78
2023/10/16 04:46:55;;;;;;;;;;;4.80;99.90;;;;;;21209853;27;20007;-78
2023/10/16 05:07:16;;;;;;;;;;;4.50;99.90;;;;;;21191383;27;19911;-79
2023/10/16 06:19:22;;;;;;;;;;;4.30;99.90;;;;;;21204139;27;20014;-77
2023/10/16 06:29:24;;;;;;;;;;;4.50;99.90;;;;;;21206393;27;19923;-79
2023/10/16 06:39:28;;;;;;;;;;;4.60;99.90;;;;;;21213749;27;19916;-80
2023/10/16 06:49:35;;;;;;;;;;;4.80;99.90;;;;;;21217835;27;19918;-80
2023/10/16 06:59:45;;;;;;;;;;;5.30;99.90;;;;;;21214148;27;19931;-80
2023/10/16 07:09:49;;;;;;;;;;;6.10;99.90;;;;;;21183712;27;20002;-77
2023/10/16 07:19:59;;;;;;;;;;;7.30;99.90;;;;;;21204739;27;19922;-78
2023/10/16 07:30:00;;;;;;;;;;;8.40;99.90;;;;;;21206709;27;19922;-79
2023/10/16 07:40:01;;;;;;;;;;;7.90;99.90;;;;;;21203388;27;19924;-77
2023/10/16 07:50:01;;;;;;;;;;;8.70;99.90;;;;;;21209427;27;19916;-77
2023/10/16 08:00:13;;;;;;;;;;;10.00;99.90;;;;;;21206114;27;19916;-79
2023/10/16 08:20:49;;;;;;;;;;;10.70;99.90;;;;;;21210681;27;19916;-81
2023/10/16 08:30:50;;;;;;;;;;;11.40;99.90;;;;;;21198078;27;19916;-81
2023/10/16 08:41:06;;;;;;;;;;;10.20;99.90;;;;;;21189378;27;19916;-81
2023/10/16 08:51:08;;;;;;;;;;;10.90;99.90;;;;;;21191165;27;19912;-79
2023/10/16 09:01:09;;;;;;;;;;;11.50;99.90;;;;;;21178283;27;20021;-79
2023/10/16 09:11:10;;;;;;;;;;;12.90;99.90;;;;;;21198223;27;19933;-77
2023/10/16 09:21:22;;;;;;;;;;;13.10;99.90;;;;;;21199332;27;19975;-81
2023/10/16 09:31:27;;;;;;;;;;;13.80;99.90;;;;;;21195979;27;19915;-81
2023/10/16 09:51:28;;;;;;;;;;;15.30;99.90;;;;;;21217293;27;19919;-79
2023/10/16 10:01:29;;;;;;;;;;;15.60;99.90;;;;;;21216177;27;19945;-77
2023/10/16 10:11:39;;;;;;;;;;;16.40;99.90;;;;;;21198303;27;20358;-79
2023/10/16 10:21:44;;;;;;;;;;;15.80;99.50;;;;;;21171098;27;19916;-79
2023/10/16 10:31:45;;;;;;;;;;;16.10;98.90;;;;;;21166916;27;19916;-79
2023/10/16 10:41:51;;;;;;;;;;;16.50;98.00;;;;;;21167495;27;19968;-80
2023/10/16 10:51:53;;;;;;;;;;;16.50;97.20;;;;;;21166677;27;19955;-79
2023/10/16 11:02:09;;;;;;;;;;;16.50;95.50;;;;;;21193710;27;19920;-77
2023/10/16 11:12:10;;;;;;;;;;;16.40;94.80;;;;;;21191367;27;20433;-78
2023/10/16 11:22:16;;;;;;;;;;;17.00;94.30;;;;;;21192692;27;19939;-78
2023/10/16 11:32:17;;;;;;;;;;;17.20;93.30;;;;;;21195584;27;19938;-79
2023/10/16 11:42:19;;;;;;;;;;;16.80;93.90;;;;;;21187552;27;19923;-78
2023/10/16 11:52:22;;;;;;;;;;;16.70;93.30;;;;;;21189137;27;19912;-79
2023/10/16 12:02:23;;;;;;;;;;;16.90;93.90;;;;;;21201097;27;20652;-79
2023/10/16 12:12:24;;;;;;;;;;;17.30;94.50;;;;;;21200486;27;19911;-79
2023/10/16 12:22:25;;;;;;;;;;;17.10;94.00;;;;;;21197721;27;20374;-79
2023/10/16 12:32:25;;;;;;;;;;;17.40;93.90;;;;;;21207223;27;19991;-79
2023/10/16 12:42:27;;;;;;;;;;;18.00;93.10;;;;;;21210733;27;19916;-80
2023/10/16 12:52:29;;;;;;;;;;;18.00;93.00;;;;;;21201727;27;19933;-79
2023/10/16 13:02:30;;;;;;;;;;;17.60;93.00;;;;;;21161162;27;19916;-79
2023/10/16 13:12:31;;;;;;;;;;;17.30;92.50;;;;;;21178095;27;19918;-78
2023/10/16 13:22:32;;;;;;;;;;;17.70;92.40;;;;;;21183411;27;19944;-78
2023/10/16 13:32:33;;;;;;;;;;;17.90;91.90;;;;;;21180219;27;20456;-78
2023/10/16 13:42:38;;;;;;;;;;;18.10;92.00;;;;;;21192508;27;20570;-78
2023/10/16 13:52:44;;;;;;;;;;;18.00;90.90;;;;;;21191612;28;19935;-78
2023/10/16 14:02:45;;;;;;;;;;;17.50;91.40;;;;;;21184443;28;20003;-78
2023/10/16 14:12:53;;;;;;;;;;;16.10;92.30;;;;;;21180305;27;19965;-78
2023/10/16 14:22:53;;;;;;;;;;;17.10;92.90;;;;;;21189927;27;20025;-78
2023/10/16 14:32:55;;;;;;;;;;;17.40;91.70;;;;;;21198427;27;19916;-78
2023/10/16 14:42:55;;;;;;;;;;;17.60;91.80;;;;;;21210238;27;19922;-79
2023/10/16 14:52:56;;;;;;;;;;;17.90;91.10;;;;;;21202172;27;19912;-80
2023/10/16 15:02:57;;;;;;;;;;;17.30;91.10;;;;;;21209914;27;19916;-78
2023/10/16 15:12:59;;;;;;;;;;;17.40;91.80;;;;;;21208072;27;20387;-78
2023/10/16 15:23:00;;;;;;;;;;;16.60;92.00;;;;;;21202257;27;19916;-79
2023/10/16 15:33:00;;;;;;;;;;;16.40;92.30;;;;;;21184378;27;19969;-79
2023/10/16 15:43:02;;;;;;;;;;;16.20;92.70;;;;;;21193157;27;20425;-78
2023/10/16 15:53:04;;;;;;;;;;;15.20;93.80;;;;;;21206662;27;20327;-79
2023/10/16 16:03:08;;;;;;;;;;;14.30;95.10;;;;;;21191724;27;19923;-79
2023/10/16 16:13:09;;;;;;;;;;;13.80;96.70;;;;;;21206893;27;19956;-77
2023/10/16 16:23:09;;;;;;;;;;;12.90;98.60;;;;;;21209797;27;20010;-80
2023/10/16 16:33:10;;;;;;;;;;;12.40;99.90;;;;;;21211021;27;19922;-80
2023/10/16 16:43:11;;;;;;;;;;;11.80;99.90;;;;;;21218868;27;19922;-80
2023/10/16 16:53:11;;;;;;;;;;;11.40;99.90;;;;;;21224416;27;19915;-80
2023/10/16 17:03:12;;;;;;;;;;;10.90;99.90;;;;;;21225989;27;20019;-80
2023/10/16 17:13:14;;;;;;;;;;;10.40;99.90;;;;;;21217341;27;19911;-80
2023/10/16 17:23:16;;;;;;;;;;;10.30;99.90;;;;;;21221157;27;19916;-79
2023/10/16 17:33:16;;;;;;;;;;;10.00;99.90;;;;;;21217912;27;19922;-80
2023/10/16 17:43:19;;;;;;;;;;;9.80;99.90;;;;;;21218314;27;20294;-80
2023/10/16 17:53:20;;;;;;;;;;;9.20;99.90;;;;;;21194001;28;20284;-80
2023/10/16 18:03:21;;;;;;;;;;;8.80;99.90;;;;;;21222464;27;19915;-80
2023/10/16 18:13:22;;;;;;;;;;;8.60;99.90;;;;;;21232837;27;20396;-80
2023/10/16 18:23:22;;;;;;;;;;;8.70;99.90;;;;;;21264720;27;19923;-79
2023/10/16 18:33:24;;;;;;;;;;;8.60;99.90;;;;;;21205574;27;20007;-78
2023/10/16 18:43:24;;;;;;;;;;;8.20;99.90;;;;;;21196907;27;20313;-79
2023/10/16 18:53:27;;;;;;;;;;;8.20;99.90;;;;;;21174746;27;19918;-79
2023/10/16 19:03:29;;;;;;;;;;;8.20;99.90;;;;;;21163899;27;19923;-78
2023/10/16 19:13:30;;;;;;;;;;;8.00;99.90;;;;;;21199442;27;19917;-78
2023/10/16 19:23:31;;;;;;;;;;;7.80;99.90;;;;;;21209603;27;19915;-78
2023/10/16 19:33:36;;;;;;;;;;;7.70;99.90;;;;;;21205310;27;20023;-78
2023/10/16 19:43:36;;;;;;;;;;;7.70;99.90;;;;;;21200860;27;20282;-78
2023/10/16 19:53:37;;;;;;;;;;;7.80;99.90;;;;;;21176788;27;19973;-78
2023/10/16 20:03:38;;;;;;;;;;;7.70;99.90;;;;;;21142208;27;20327;-78
2023/10/16 20:13:41;;;;;;;;;;;7.60;99.90;;;;;;21154084;27;19950;-78
2023/10/16 20:23:42;;;;;;;;;;;7.50;99.90;;;;;;21177620;27;19915;-78
2023/10/16 20:33:44;;;;;;;;;;;7.40;99.90;;;;;;21159514;27;19923;-79
2023/10/16 20:43:45;;;;;;;;;;;7.10;99.90;;;;;;21162786;27;20338;-78
2023/10/16 20:53:46;;;;;;;;;;;7.20;99.90;;;;;;21175083;27;19919;-81
2023/10/16 21:03:46;;;;;;;;;;;7.10;99.90;;;;;;21216568;27;19941;-81
2023/10/16 21:13:47;;;;;;;;;;;7.00;99.90;;;;;;21208536;27;19911;-81
2023/10/16 21:23:49;;;;;;;;;;;7.00;99.90;;;;;;21191690;27;19916;-80
2023/10/16 21:33:50;;;;;;;;;;;7.00;99.90;;;;;;21231591;27;19919;-80
2023/10/16 21:43:51;;;;;;;;;;;6.70;99.90;;;;;;21177718;27;20427;-80
2023/10/16 21:53:51;;;;;;;;;;;6.60;99.90;;;;;;21198721;27;19916;-80
2023/10/16 22:03:52;;;;;;;;;;;6.30;99.90;;;;;;21190013;27;19916;-79
2023/10/16 22:13:53;;;;;;;;;;;6.10;99.90;;;;;;21214365;28;19916;-80
2023/10/16 22:23:54;;;;;;;;;;;6.00;99.90;;;;;;21184568;27;19916;-80
2023/10/16 22:33:55;;;;;;;;;;;6.00;99.90;;;;;;21178682;28;19916;-80
2023/10/16 22:43:57;;;;;;;;;;;5.90;99.90;;;;;;21208233;28;20064;-79
2023/10/16 22:53:58;;;;;;;;;;;5.80;99.90;;;;;;21233056;27;19916;-80
2023/10/16 23:03:58;;;;;;;;;;;5.70;99.90;;;;;;21253836;27;19935;-80
2023/10/16 23:13:59;;;;;;;;;;;5.70;99.90;;;;;;21231648;27;19934;-80
2023/10/16 23:24:00;;;;;;;;;;;5.60;99.90;;;;;;21253666;27;19916;-80
2023/10/16 23:34:01;;;;;;;;;;;5.50;99.90;;;;;;21251216;27;20091;-80
2023/10/16 23:44:14;;;;;;;;;;;5.30;99.90;;;;;;21246358;27;19916;-80
2023/10/16 23:55:09;;;;;;;;;;;5.40;99.90;;;;;;21263447;27;19949;-80
